sensor_id;sensor_type;location;lat;lon;timestamp;temperature;humidity
17891;DHT22;9071;48.220;14.480;2023-07-20T00:01:01;19.70;99.90
17891;DHT22;9071;48.220;14.480;2023-07-20T00:06:04;19.70;99.90
17891;DHT22;9071;48.220;14.480;2023-07-20T00:11:06;19.50;99.90
17891;DHT22;9071;48.220;14.480;2023-07-20T00:16:08;19.20;99.90
17891;DHT22;9071;48.220;14.480;2023-07-20T00:21:12;18.90;99.90
17891;DHT22;9071;48.220;14.480;2023-07-20T00:26:14;18.70;99.90
17891;DHT22;9071;48.220;14.480;2023-07-20T00:31:16;18.60;99.90
17891;DHT22;9071;48.220;14.480;2023-07-20T00:36:19;18.50;99.90
17891;DHT22;9071;48.220;14.480;2023-07-20T00:41:21;18.40;99.90
17891;DHT22;9071;48.220;14.480;2023-07-20T00:46:24;18.40;99.90
17891;DHT22;9071;48.220;14.480;2023-07-20T00:51:28;18.40;99.90
17891;DHT22;9071;48.220;14.480;2023-07-20T00:56:30;18.50;99.90
17891;DHT22;9071;48.220;14.480;2023-07-20T01:01:32;18.50;99.90
17891;DHT22;9071;48.220;14.480;2023-07-20T01:06:45;18.70;99.90
17891;DHT22;9071;48.220;14.480;2023-07-20T01:11:57;18.70;99.90
17891;DHT22;9071;48.220;14.480;2023-07-20T01:17:01;18.70;99.90
17891;DHT22;9071;48.220;14.480;2023-07-20T01:22:12;18.60;99.90
17891;DHT22;9071;48.220;14.480;2023-07-20T01:27:44;18.50;99.90
17891;DHT22;9071;48.220;14.480;2023-07-20T01:32:55;18.40;99.90
17891;DHT22;9071;48.220;14.480;2023-07-20T01:37:59;18.30;99.90
17891;DHT22;9071;48.220;14.480;2023-07-20T01:43:02;18.40;99.90
17891;DHT22;9071;48.220;14.480;2023-07-20T01:48:06;18.40;99.90
17891;DHT22;9071;48.220;14.480;2023-07-20T01:53:08;18.40;99.90
17891;DHT22;9071;48.220;14.480;2023-07-20T01:58:10;18.40;99.90
17891;DHT22;9071;48.220;14.480;2023-07-20T02:03:14;18.40;99.90
17891;DHT22;9071;48.220;14.480;2023-07-20T02:08:16;18.40;99.90
17891;DHT22;9071;48.220;14.480;2023-07-20T02:13:18;18.40;99.90
17891;DHT22;9071;48.220;14.480;2023-07-20T02:18:22;18.40;99.90
17891;DHT22;9071;48.220;14.480;2023-07-20T02:23:24;18.40;99.90
17891;DHT22;9071;48.220;14.480;2023-07-20T02:28:26;18.50;99.90
17891;DHT22;9071;48.220;14.480;2023-07-20T02:33:31;18.50;99.90
17891;DHT22;9071;48.220;14.480;2023-07-20T02:38:33;18.60;99.90
17891;DHT22;9071;48.220;14.480;2023-07-20T02:43:35;18.70;99.90
17891;DHT22;9071;48.220;14.480;2023-07-20T02:48:38;18.70;99.90
17891;DHT22;9071;48.220;14.480;2023-07-20T02:53:40;18.80;99.90
17891;DHT22;9071;48.220;14.480;2023-07-20T02:58:43;18.70;99.90
17891;DHT22;9071;48.220;14.480;2023-07-20T03:03:47;18.60;99.90
17891;DHT22;9071;48.220;14.480;2023-07-20T03:08:50;18.60;99.90
17891;DHT22;9071;48.220;14.480;2023-07-20T03:13:54;18.70;99.90
17891;DHT22;9071;48.220;14.480;2023-07-20T03:18:57;18.70;99.90
17891;DHT22;9071;48.220;14.480;2023-07-20T03:23:59;18.70;99.90
17891;DHT22;9071;48.220;14.480;2023-07-20T03:29:01;18.70;99.90
17891;DHT22;9071;48.220;14.480;2023-07-20T03:34:05;18.70;99.90
17891;DHT22;9071;48.220;14.480;2023-07-20T03:39:08;18.70;99.90
17891;DHT22;9071;48.220;14.480;2023-07-20T03:44:11;18.70;99.90
17891;DHT22;9071;48.220;14.480;2023-07-20T03:49:14;18.60;99.90
17891;DHT22;9071;48.220;14.480;2023-07-20T03:54:16;18.60;99.90
17891;DHT22;9071;48.220;14.480;2023-07-20T03:59:20;18.60;99.90
17891;DHT22;9071;48.220;14.480;2023-07-20T04:04:23;18.60;99.90
17891;DHT22;9071;48.220;14.480;2023-07-20T04:09:25;18.70;99.90
17891;DHT22;9071;48.220;14.480;2023-07-20T04:14:27;18.70;99.90
17891;DHT22;9071;48.220;14.480;2023-07-20T04:19:31;18.90;99.90
17891;DHT22;9071;48.220;14.480;2023-07-20T04:24:33;19.10;99.90
17891;DHT22;9071;48.220;14.480;2023-07-20T04:29:35;19.20;99.90
17891;DHT22;9071;48.220;14.480;2023-07-20T04:34:38;19.50;99.90
17891;DHT22;9071;48.220;14.480;2023-07-20T04:39:40;19.70;99.90
17891;DHT22;9071;48.220;14.480;2023-07-20T04:44:42;19.80;99.90
17891;DHT22;9071;48.220;14.480;2023-07-20T04:49:46;20.00;99.90
17891;DHT22;9071;48.220;14.480;2023-07-20T04:54:48;20.00;99.90
17891;DHT22;9071;48.220;14.480;2023-07-20T04:59:50;20.10;99.90
17891;DHT22;9071;48.220;14.480;2023-07-20T05:04:54;20.40;99.90
17891;DHT22;9071;48.220;14.480;2023-07-20T05:09:56;20.70;99.90
17891;DHT22;9071;48.220;14.480;2023-07-20T05:14:58;21.00;99.90
17891;DHT22;9071;48.220;14.480;2023-07-20T05:20:01;21.10;99.90
17891;DHT22;9071;48.220;14.480;2023-07-20T05:25:06;20.90;99.90
17891;DHT22;9071;48.220;14.480;2023-07-20T05:30:09;20.80;99.90
17891;DHT22;9071;48.220;14.480;2023-07-20T05:35:12;20.80;99.90
17891;DHT22;9071;48.220;14.480;2023-07-20T05:40:15;21.10;99.90
17891;DHT22;9071;48.220;14.480;2023-07-20T05:45:19;21.40;99.90
17891;DHT22;9071;48.220;14.480;2023-07-20T05:50:23;21.70;99.90
17891;DHT22;9071;48.220;14.480;2023-07-20T05:55:25;22.70;99.90
17891;DHT22;9071;48.220;14.480;2023-07-20T06:00:27;24.40;99.90
17891;DHT22;9071;48.220;14.480;2023-07-20T06:05:31;24.40;99.90
17891;DHT22;9071;48.220;14.480;2023-07-20T06:10:33;27.80;99.90
17891;DHT22;9071;48.220;14.480;2023-07-20T06:15:35;28.50;99.90
17891;DHT22;9071;48.220;14.480;2023-07-20T06:20:40;26.60;99.90
17891;DHT22;9071;48.220;14.480;2023-07-20T06:25:42;25.10;99.90
17891;DHT22;9071;48.220;14.480;2023-07-20T06:30:44;24.50;99.90
17891;DHT22;9071;48.220;14.480;2023-07-20T06:35:48;27.00;99.90
17891;DHT22;9071;48.220;14.480;2023-07-20T06:40:50;26.70;99.90
17891;DHT22;9071;48.220;14.480;2023-07-20T06:45:53;25.00;99.90
17891;DHT22;9071;48.220;14.480;2023-07-20T06:50:57;23.70;99.90
17891;DHT22;9071;48.220;14.480;2023-07-20T06:55:59;23.00;99.90
17891;DHT22;9071;48.220;14.480;2023-07-20T07:01:05;22.80;99.90
17891;DHT22;9071;48.220;14.480;2023-07-20T07:06:08;22.90;99.90
17891;DHT22;9071;48.220;14.480;2023-07-20T07:11:10;24.80;99.90
17891;DHT22;9071;48.220;14.480;2023-07-20T07:16:12;28.50;99.90
17891;DHT22;9071;48.220;14.480;2023-07-20T07:21:16;30.70;99.90
17891;DHT22;9071;48.220;14.480;2023-07-20T07:26:19;31.20;99.90
17891;DHT22;9071;48.220;14.480;2023-07-20T07:31:22;29.00;99.90
17891;DHT22;9071;48.220;14.480;2023-07-20T07:36:25;27.20;99.90
17891;DHT22;9071;48.220;14.480;2023-07-20T07:41:27;26.50;99.90
17891;DHT22;9071;48.220;14.480;2023-07-20T07:46:30;27.00;99.90
17891;DHT22;9071;48.220;14.480;2023-07-20T07:51:33;29.20;99.90
17891;DHT22;9071;48.220;14.480;2023-07-20T07:56:35;27.30;99.90
17891;DHT22;9071;48.220;14.480;2023-07-20T08:01:37;26.20;99.90
17891;DHT22;9071;48.220;14.480;2023-07-20T08:06:41;25.70;99.90
17891;DHT22;9071;48.220;14.480;2023-07-20T08:11:43;26.50;99.90
17891;DHT22;9071;48.220;14.480;2023-07-20T08:16:45;28.90;99.90
17891;DHT22;9071;48.220;14.480;2023-07-20T08:21:49;30.50;99.90
17891;DHT22;9071;48.220;14.480;2023-07-20T08:26:51;27.90;99.90
17891;DHT22;9071;48.220;14.480;2023-07-20T08:31:53;26.70;99.90
17891;DHT22;9071;48.220;14.480;2023-07-20T08:36:57;25.60;99.90
17891;DHT22;9071;48.220;14.480;2023-07-20T08:41:59;25.70;99.90
17891;DHT22;9071;48.220;14.480;2023-07-20T08:47:06;26.00;99.90
17891;DHT22;9071;48.220;14.480;2023-07-20T08:52:11;26.10;99.90
17891;DHT22;9071;48.220;14.480;2023-07-20T08:57:13;26.00;99.90
17891;DHT22;9071;48.220;14.480;2023-07-20T09:02:16;25.80;99.90
17891;DHT22;9071;48.220;14.480;2023-07-20T09:07:21;25.60;99.90
17891;DHT22;9071;48.220;14.480;2023-07-20T09:12:23;25.70;99.90
17891;DHT22;9071;48.220;14.480;2023-07-20T09:17:26;26.00;99.90
17891;DHT22;9071;48.220;14.480;2023-07-20T09:22:31;26.50;99.90
17891;DHT22;9071;48.220;14.480;2023-07-20T09:27:36;26.30;99.90
17891;DHT22;9071;48.220;14.480;2023-07-20T09:32:39;26.00;99.90
17891;DHT22;9071;48.220;14.480;2023-07-20T09:37:53;26.00;99.90
17891;DHT22;9071;48.220;14.480;2023-07-20T09:42:55;26.20;99.90
17891;DHT22;9071;48.220;14.480;2023-07-20T09:48:03;26.10;99.90
17891;DHT22;9071;48.220;14.480;2023-07-20T09:53:11;26.00;99.90
17891;DHT22;9071;48.220;14.480;2023-07-20T09:58:14;26.10;99.90
17891;DHT22;9071;48.220;14.480;2023-07-20T10:03:18;26.40;99.90
17891;DHT22;9071;48.220;14.480;2023-07-20T10:08:24;26.70;99.90
17891;DHT22;9071;48.220;14.480;2023-07-20T10:13:28;27.10;99.90
17891;DHT22;9071;48.220;14.480;2023-07-20T10:18:38;26.90;99.90
17891;DHT22;9071;48.220;14.480;2023-07-20T10:23:44;27.30;99.90
17891;DHT22;9071;48.220;14.480;2023-07-20T10:28:47;27.20;99.90
17891;DHT22;9071;48.220;14.480;2023-07-20T10:33:49;27.10;99.90
17891;DHT22;9071;48.220;14.480;2023-07-20T10:38:55;26.80;99.90
17891;DHT22;9071;48.220;14.480;2023-07-20T10:44:01;26.70;99.90
17891;DHT22;9071;48.220;14.480;2023-07-20T10:49:05;26.40;99.90
17891;DHT22;9071;48.220;14.480;2023-07-20T10:54:34;26.60;99.90
17891;DHT22;9071;48.220;14.480;2023-07-20T10:59:37;26.30;99.90
17891;DHT22;9071;48.220;14.480;2023-07-20T11:04:41;26.40;99.90
17891;DHT22;9071;48.220;14.480;2023-07-20T11:09:45;26.60;99.90
17891;DHT22;9071;48.220;14.480;2023-07-20T11:14:54;27.10;99.90
17891;DHT22;9071;48.220;14.480;2023-07-20T11:19:57;27.20;99.90
17891;DHT22;9071;48.220;14.480;2023-07-20T11:25:03;27.00;99.90
17891;DHT22;9071;48.220;14.480;2023-07-20T11:30:15;27.30;99.90
17891;DHT22;9071;48.220;14.480;2023-07-20T11:35:17;27.30;99.90
17891;DHT22;9071;48.220;14.480;2023-07-20T11:40:22;27.70;99.90
17891;DHT22;9071;48.220;14.480;2023-07-20T11:45:25;27.50;99.90
17891;DHT22;9071;48.220;14.480;2023-07-20T11:50:28;27.70;99.90
17891;DHT22;9071;48.220;14.480;2023-07-20T11:55:32;27.60;99.90
17891;DHT22;9071;48.220;14.480;2023-07-20T12:00:37;26.90;99.90
17891;DHT22;9071;48.220;14.480;2023-07-20T12:05:39;27.10;99.90
17891;DHT22;9071;48.220;14.480;2023-07-20T12:10:43;26.70;99.90
17891;DHT22;9071;48.220;14.480;2023-07-20T12:15:45;26.70;99.90
17891;DHT22;9071;48.220;14.480;2023-07-20T12:20:47;27.00;99.90
17891;DHT22;9071;48.220;14.480;2023-07-20T12:25:51;27.10;99.90
17891;DHT22;9071;48.220;14.480;2023-07-20T12:30:54;27.40;99.90
17891;DHT22;9071;48.220;14.480;2023-07-20T12:35:58;27.40;99.90
17891;DHT22;9071;48.220;14.480;2023-07-20T12:41:02;27.40;99.90
17891;DHT22;9071;48.220;14.480;2023-07-20T12:46:04;27.60;99.90
17891;DHT22;9071;48.220;14.480;2023-07-20T12:51:07;27.60;99.90
17891;DHT22;9071;48.220;14.480;2023-07-20T12:56:10;27.60;99.90
17891;DHT22;9071;48.220;14.480;2023-07-20T13:01:12;27.60;99.90
17891;DHT22;9071;48.220;14.480;2023-07-20T13:06:15;27.60;99.90
17891;DHT22;9071;48.220;14.480;2023-07-20T13:11:18;27.00;99.90
17891;DHT22;9071;48.220;14.480;2023-07-20T13:16:20;26.80;99.90
17891;DHT22;9071;48.220;14.480;2023-07-20T13:21:23;27.10;99.90
17891;DHT22;9071;48.220;14.480;2023-07-20T13:26:27;27.60;99.90
17891;DHT22;9071;48.220;14.480;2023-07-20T13:31:29;27.50;99.90
17891;DHT22;9071;48.220;14.480;2023-07-20T13:36:32;26.90;99.90
17891;DHT22;9071;48.220;14.480;2023-07-20T13:41:35;27.00;99.90
17891;DHT22;9071;48.220;14.480;2023-07-20T13:46:37;27.30;99.90
17891;DHT22;9071;48.220;14.480;2023-07-20T13:56:44;27.30;99.90
17891;DHT22;9071;48.220;14.480;2023-07-20T14:01:46;27.30;99.90
17891;DHT22;9071;48.220;14.480;2023-07-20T14:06:48;27.30;99.90
17891;DHT22;9071;48.220;14.480;2023-07-20T14:11:52;27.40;99.90
17891;DHT22;9071;48.220;14.480;2023-07-20T14:16:54;27.40;99.90
17891;DHT22;9071;48.220;14.480;2023-07-20T14:21:57;27.20;99.90
17891;DHT22;9071;48.220;14.480;2023-07-20T14:27:01;27.10;99.90
17891;DHT22;9071;48.220;14.480;2023-07-20T14:32:04;26.70;99.90
17891;DHT22;9071;48.220;14.480;2023-07-20T14:37:08;26.80;99.90
17891;DHT22;9071;48.220;14.480;2023-07-20T14:42:11;27.10;99.90
17891;DHT22;9071;48.220;14.480;2023-07-20T14:47:13;27.20;99.90
17891;DHT22;9071;48.220;14.480;2023-07-20T14:52:15;27.00;99.90
17891;DHT22;9071;48.220;14.480;2023-07-20T14:57:19;26.90;99.90
17891;DHT22;9071;48.220;14.480;2023-07-20T15:02:23;27.10;99.90
17891;DHT22;9071;48.220;14.480;2023-07-20T15:07:26;26.90;99.90
17891;DHT22;9071;48.220;14.480;2023-07-20T15:12:29;26.80;99.90
17891;DHT22;9071;48.220;14.480;2023-07-20T15:17:32;26.70;99.90
17891;DHT22;9071;48.220;14.480;2023-07-20T15:22:35;26.90;99.90
17891;DHT22;9071;48.220;14.480;2023-07-20T15:27:39;27.00;99.90
17891;DHT22;9071;48.220;14.480;2023-07-20T15:32:41;27.00;99.90
17891;DHT22;9071;48.220;14.480;2023-07-20T15:37:44;26.70;99.90
17891;DHT22;9071;48.220;14.480;2023-07-20T15:42:47;26.40;99.90
17891;DHT22;9071;48.220;14.480;2023-07-20T15:47:49;25.90;99.90
17891;DHT22;9071;48.220;14.480;2023-07-20T15:52:51;25.70;99.90
17891;DHT22;9071;48.220;14.480;2023-07-20T15:57:55;26.00;99.90
17891;DHT22;9071;48.220;14.480;2023-07-20T16:02:57;26.30;99.90
17891;DHT22;9071;48.220;14.480;2023-07-20T16:07:59;26.30;99.90
17891;DHT22;9071;48.220;14.480;2023-07-20T16:13:03;26.40;99.90
17891;DHT22;9071;48.220;14.480;2023-07-20T16:18:05;26.20;99.90
17891;DHT22;9071;48.220;14.480;2023-07-20T16:23:07;25.80;99.90
17891;DHT22;9071;48.220;14.480;2023-07-20T16:28:10;25.70;99.90
17891;DHT22;9071;48.220;14.480;2023-07-20T16:33:13;25.60;99.90
17891;DHT22;9071;48.220;14.480;2023-07-20T16:38:15;25.40;99.90
17891;DHT22;9071;48.220;14.480;2023-07-20T16:43:18;25.70;99.90
17891;DHT22;9071;48.220;14.480;2023-07-20T16:48:20;25.80;99.90
17891;DHT22;9071;48.220;14.480;2023-07-20T16:53:23;25.80;99.90
17891;DHT22;9071;48.220;14.480;2023-07-20T16:58:27;25.70;99.90
17891;DHT22;9071;48.220;14.480;2023-07-20T17:03:29;25.40;99.90
17891;DHT22;9071;48.220;14.480;2023-07-20T17:08:31;25.30;99.90
17891;DHT22;9071;48.220;14.480;2023-07-20T17:13:35;25.30;99.90
17891;DHT22;9071;48.220;14.480;2023-07-20T17:18:37;25.20;99.90
17891;DHT22;9071;48.220;14.480;2023-07-20T17:23:39;25.10;99.90
17891;DHT22;9071;48.220;14.480;2023-07-20T17:28:42;25.00;99.90
17891;DHT22;9071;48.220;14.480;2023-07-20T17:33:44;24.80;99.90
17891;DHT22;9071;48.220;14.480;2023-07-20T17:38:46;24.70;99.90
17891;DHT22;9071;48.220;14.480;2023-07-20T17:43:50;24.50;99.90
17891;DHT22;9071;48.220;14.480;2023-07-20T17:48:52;24.40;99.90
17891;DHT22;9071;48.220;14.480;2023-07-20T17:53:54;24.30;99.90
17891;DHT22;9071;48.220;14.480;2023-07-20T17:58:58;24.10;99.90
17891;DHT22;9071;48.220;14.480;2023-07-20T18:04:00;23.90;99.90
17891;DHT22;9071;48.220;14.480;2023-07-20T18:09:02;23.80;99.90
17891;DHT22;9071;48.220;14.480;2023-07-20T18:14:06;23.70;99.90
17891;DHT22;9071;48.220;14.480;2023-07-20T18:19:08;23.50;99.90
17891;DHT22;9071;48.220;14.480;2023-07-20T18:24:10;23.20;99.90
17891;DHT22;9071;48.220;14.480;2023-07-20T18:29:13;23.00;99.90
17891;DHT22;9071;48.220;14.480;2023-07-20T18:34:16;22.80;99.90
17891;DHT22;9071;48.220;14.480;2023-07-20T18:39:18;22.50;99.90
17891;DHT22;9071;48.220;14.480;2023-07-20T18:44:21;22.30;99.90
17891;DHT22;9071;48.220;14.480;2023-07-20T18:49:24;22.00;99.90
17891;DHT22;9071;48.220;14.480;2023-07-20T18:54:26;21.90;99.90
17891;DHT22;9071;48.220;14.480;2023-07-20T18:59:30;21.70;99.90
17891;DHT22;9071;48.220;14.480;2023-07-20T19:04:32;21.60;99.90
17891;DHT22;9071;48.220;14.480;2023-07-20T19:09:34;21.30;99.90
17891;DHT22;9071;48.220;14.480;2023-07-20T19:14:38;21.10;99.90
17891;DHT22;9071;48.220;14.480;2023-07-20T19:19:40;21.00;99.90
17891;DHT22;9071;48.220;14.480;2023-07-20T19:24:42;20.90;99.90
17891;DHT22;9071;48.220;14.480;2023-07-20T19:29:46;20.70;99.90
17891;DHT22;9071;48.220;14.480;2023-07-20T19:34:48;20.50;99.90
17891;DHT22;9071;48.220;14.480;2023-07-20T19:39:50;20.40;99.90
17891;DHT22;9071;48.220;14.480;2023-07-20T19:44:54;20.20;99.90
17891;DHT22;9071;48.220;14.480;2023-07-20T19:49:56;20.10;99.90
17891;DHT22;9071;48.220;14.480;2023-07-20T19:54:58;20.00;99.90
17891;DHT22;9071;48.220;14.480;2023-07-20T20:00:06;19.90;99.90
17891;DHT22;9071;48.220;14.480;2023-07-20T20:05:12;19.70;99.90
17891;DHT22;9071;48.220;14.480;2023-07-20T20:10:15;19.60;99.90
17891;DHT22;9071;48.220;14.480;2023-07-20T20:15:19;19.50;99.90
17891;DHT22;9071;48.220;14.480;2023-07-20T20:20:21;19.40;99.90
17891;DHT22;9071;48.220;14.480;2023-07-20T20:25:23;19.40;99.90
17891;DHT22;9071;48.220;14.480;2023-07-20T20:30:27;19.50;99.90
17891;DHT22;9071;48.220;14.480;2023-07-20T20:35:29;19.30;99.90
17891;DHT22;9071;48.220;14.480;2023-07-20T20:40:32;19.20;99.90
17891;DHT22;9071;48.220;14.480;2023-07-20T20:45:35;19.00;99.90
17891;DHT22;9071;48.220;14.480;2023-07-20T20:50:39;18.80;99.90
17891;DHT22;9071;48.220;14.480;2023-07-20T20:55:44;18.80;99.90
17891;DHT22;9071;48.220;14.480;2023-07-20T21:00:49;18.70;99.90
17891;DHT22;9071;48.220;14.480;2023-07-20T21:05:51;18.60;99.90
17891;DHT22;9071;48.220;14.480;2023-07-20T21:10:57;18.40;99.90
17891;DHT22;9071;48.220;14.480;2023-07-20T21:16:00;18.30;99.90
17891;DHT22;9071;48.220;14.480;2023-07-20T21:21:03;18.20;99.90
17891;DHT22;9071;48.220;14.480;2023-07-20T21:26:05;18.10;99.90
17891;DHT22;9071;48.220;14.480;2023-07-20T21:31:08;18.10;99.90
17891;DHT22;9071;48.220;14.480;2023-07-20T21:36:11;18.00;99.90
17891;DHT22;9071;48.220;14.480;2023-07-20T21:41:13;17.90;99.90
17891;DHT22;9071;48.220;14.480;2023-07-20T21:46:16;17.80;99.90
17891;DHT22;9071;48.220;14.480;2023-07-20T21:51:18;17.80;99.90
17891;DHT22;9071;48.220;14.480;2023-07-20T21:56:20;17.70;99.90
17891;DHT22;9071;48.220;14.480;2023-07-20T22:01:23;17.60;99.90
17891;DHT22;9071;48.220;14.480;2023-07-20T22:06:26;17.50;99.90
17891;DHT22;9071;48.220;14.480;2023-07-20T22:11:28;17.40;99.90
17891;DHT22;9071;48.220;14.480;2023-07-20T22:16:31;17.30;99.90
17891;DHT22;9071;48.220;14.480;2023-07-20T22:21:34;17.20;99.90
17891;DHT22;9071;48.220;14.480;2023-07-20T22:26:36;17.20;99.90
17891;DHT22;9071;48.220;14.480;2023-07-20T22:31:39;17.10;99.90
17891;DHT22;9071;48.220;14.480;2023-07-20T22:36:41;17.00;99.90
17891;DHT22;9071;48.220;14.480;2023-07-20T22:41:43;17.00;99.90
17891;DHT22;9071;48.220;14.480;2023-07-20T22:46:47;16.90;99.90
17891;DHT22;9071;48.220;14.480;2023-07-20T22:51:49;16.90;99.90
17891;DHT22;9071;48.220;14.480;2023-07-20T22:56:51;16.70;99.90
17891;DHT22;9071;48.220;14.480;2023-07-20T23:01:55;16.60;99.90
17891;DHT22;9071;48.220;14.480;2023-07-20T23:06:57;16.80;99.90
17891;DHT22;9071;48.220;14.480;2023-07-20T23:11:59;16.70;99.90
17891;DHT22;9071;48.220;14.480;2023-07-20T23:17:03;16.60;99.90
17891;DHT22;9071;48.220;14.480;2023-07-20T23:22:07;16.60;99.90
17891;DHT22;9071;48.220;14.480;2023-07-20T23:27:09;16.60;99.90
17891;DHT22;9071;48.220;14.480;2023-07-20T23:32:12;16.50;99.90
17891;DHT22;9071;48.220;14.480;2023-07-20T23:37:17;16.30;99.90
17891;DHT22;9071;48.220;14.480;2023-07-20T23:42:20;16.20;99.90
17891;DHT22;9071;48.220;14.480;2023-07-20T23:47:24;16.20;99.90
17891;DHT22;9071;48.220;14.480;2023-07-20T23:52:26;16.10;99.90
17891;DHT22;9071;48.220;14.480;2023-07-20T23:57:28;16.00;99.90
